This is the latest recevied weather packets stored in our database for station/object KD0JCP-10. If no packets are shown the sender has not sent any weather packets the latest 10 day(s).
| Time | Temp. | Humidity | Pressure | Rain* | Wind** | Luminosity | Snow |
|---|---|---|---|---|---|---|---|
| 1777825579 | 21.11° C | 33% | 1013.6 hPa | 0 mm | - | - | - |
| 1777825279 | 20.56° C | 32% | 1013.7 hPa | 0 mm | - | - | - |
| 1777824979 | 21.11° C | 32% | 1013.7 hPa | 0 mm | - | - | - |
| 1777824679 | 20.56° C | 34% | 1013.7 hPa | 0 mm | - | - | - |
| 1777824379 | 20.56° C | 33% | 1013.8 hPa | 0 mm | - | - | - |
| 1777824079 | 20.56° C | 35% | 1013.7 hPa | 0 mm | - | - | - |
| 1777823779 | 20° C | 35% | 1013.8 hPa | 0 mm | - | - | - |
| 1777823479 | 20° C | 36% | 1013.7 hPa | 0 mm | - | - | - |
| 1777822879 | 19.44° C | 36% | 1013.9 hPa | 0 mm | - | - | - |
| 1777822579 | 19.44° C | 39% | 1013.8 hPa | 0 mm | - | - | - |
| 1777822279 | 18.89° C | 38% | 1013.8 hPa | 0 mm | - | - | - |
| 1777821979 | 18.89° C | 39% | 1013.8 hPa | 0 mm | - | - | - |
| 1777821679 | 18.33° C | 39% | 1013.9 hPa | 0 mm | - | - | - |
| 1777821379 | 18.33° C | 39% | 1013.8 hPa | 0 mm | - | - | - |
| 1777821079 | 18.89° C | 39% | 1013.9 hPa | 0 mm | - | - | - |
| 1777820779 | 18.33° C | 39% | 1013.8 hPa | 0 mm | - | - | - |
| 1777820479 | 18.33° C | 42% | 1013.9 hPa | 0 mm | - | - | - |
| 1777820179 | 17.78° C | 44% | 1013.9 hPa | 0 mm | - | - | - |
| 1777819879 | 17.78° C | 43% | 1013.8 hPa | 0 mm | - | - | - |
| 1777818979 | 16.67° C | 43% | 1014 hPa | 0 mm | - | - | - |
| 1777818079 | 16.11° C | 45% | 1013.7 hPa | 0 mm | - | - | - |
| 1777817479 | 16.11° C | 45% | 1013.6 hPa | 0 mm | - | - | - |
| 1777817179 | 16.11° C | 46% | 1013.6 hPa | 0 mm | - | - | - |
| 1777816579 | 16.67° C | 45% | 1013.4 hPa | 0 mm | - | - | - |
| 1777815079 | 13.89° C | 53% | 1013.1 hPa | 0 mm | - | - | - |
* Rain latest hour (hover to see other rain measurements)
** Current wind speed in m/s (hover to see current wind gust speed)